Time;durP1;ratioP1;P1;durP2;ratioP2;P2;SDS_P1;SDS_P2;PMS_P1;PMS_P2;Temp;Humidity;BMP_temperature;BMP_pressure;BME280_temperature;BME280_humidity;BME280_pressure;Samples;Min_cycle;Max_cycle;Signal;HPM_P1;HPM_P2
2023/11/19 00:01:32;;;;;;;0.20;0.20;;;;;;;5.52;100.00;100354.50;5040301;28;20057;-75
2023/11/19 00:03:58;;;;;;;0.38;0.38;;;;;;;4.90;100.00;100250.09;5005566;28;20106;-75
2023/11/19 00:06:49;;;;;;;0.20;0.20;;;;;;;5.40;100.00;100360.34;5043916;28;20469;-73
2023/11/19 00:09:16;;;;;;;0.25;0.25;;;;;;;5.60;100.00;100352.94;5035935;28;20120;-75
2023/11/19 00:15:03;;;;;;;0.20;0.20;;;;;;;5.41;100.00;100362.09;5052761;28;20132;-74
2023/11/19 00:17:29;;;;;;;0.30;0.30;;;;;;;4.91;100.00;100254.44;5021127;28;20119;-75
2023/11/19 00:19:54;;;;;;;1.17;1.08;;;;;;;4.68;100.00;100334.53;5034434;28;20041;-76
2023/11/19 00:25:58;;;;;;;0.40;0.40;;;;;;;5.08;100.00;100365.78;5040738;28;20090;-75
2023/11/19 00:28:38;;;;;;;0.30;0.30;;;;;;;4.82;100.00;100289.81;5029152;28;20143;-74
2023/11/19 00:31:27;;;;;;;0.75;0.65;;;;;;;5.53;100.00;100361.47;5037696;28;20036;-74
2023/11/19 00:41:10;;;;;;;0.30;0.30;;;;;;;5.46;100.00;100372.59;5039793;28;20083;-76
2023/11/19 00:43:36;;;;;;;0.30;0.30;;;;;;;5.51;100.00;100381.38;5046243;28;20040;-74
2023/11/19 00:46:03;;;;;;;0.20;0.20;;;;;;;5.46;100.00;100383.03;5053058;28;20388;-74
2023/11/19 00:48:28;;;;;;;0.40;0.40;;;;;;;5.29;100.00;100359.22;5047711;28;20036;-74
2023/11/19 00:50:59;;;;;;;0.40;0.40;;;;;;;5.20;100.00;100348.66;5015810;28;20033;-73
2023/11/19 00:53:25;;;;;;;0.40;0.40;;;;;;;5.31;100.00;100375.75;5046765;28;20141;-75
2023/11/19 00:55:50;;;;;;;0.30;0.30;;;;;;;5.24;100.00;100360.88;5048392;28;20121;-76
2023/11/19 01:01:39;;;;;;;0.25;0.25;;;;;;;5.44;100.00;100380.38;5043996;28;20040;-74
2023/11/19 01:04:05;;;;;;;1.75;1.65;;;;;;;4.64;100.00;100266.03;5022406;28;20075;-73
2023/11/19 01:06:31;;;;;;;2.13;2.05;;;;;;;4.99;100.00;100323.09;5018434;28;20502;-73
2023/11/19 01:08:57;;;;;;;0.20;0.20;;;;;;;5.03;100.00;100331.00;5013576;28;20025;-74
2023/11/19 01:11:28;;;;;;;0.20;0.20;;;;;;;4.64;100.00;100297.22;5033839;28;20041;-74
2023/11/19 01:13:54;;;;;;;0.40;0.40;;;;;;;4.60;100.00;100259.88;5022908;28;20025;-75
2023/11/19 01:16:20;;;;;;;1.35;1.25;;;;;;;5.11;100.00;100371.88;5036601;28;20489;-74
2023/11/19 01:18:49;;;;;;;0.22;0.22;;;;;;;4.72;100.00;100300.84;5044769;28;20041;-76
2023/11/19 01:21:29;;;;;;;0.30;0.30;;;;;;;5.27;100.00;100395.66;5039550;28;20021;-74
2023/11/19 01:23:59;;;;;;;0.20;0.20;;;;;;;4.69;100.00;100310.31;5027026;28;20108;-75
2023/11/19 01:26:25;;;;;;;0.30;0.30;;;;;;;5.00;100.00;100349.09;5029556;28;20389;-74
2023/11/19 01:28:52;;;;;;;0.43;0.43;;;;;;;5.22;100.00;100384.28;5052663;28;20037;-74
2023/11/19 01:31:18;;;;;;;0.30;0.30;;;;;;;4.90;100.00;100362.75;5036709;28;20032;-73
2023/11/19 01:33:43;;;;;;;0.20;0.20;;;;;;;4.41;100.00;100266.38;5018687;28;20037;-74
2023/11/19 01:36:12;;;;;;;1.38;1.38;;;;;;;5.43;100.00;100382.94;5037038;28;20022;-73
2023/11/19 01:38:44;;;;;;;0.30;0.30;;;;;;;5.52;100.00;100374.44;5042055;28;20032;-73
2023/11/19 01:41:16;;;;;;;0.30;0.30;;;;;;;5.25;100.00;100366.13;5043399;28;20381;-73
2023/11/19 01:43:42;;;;;;;0.30;0.30;;;;;;;5.10;100.00;100381.38;5025530;28;20040;-75
2023/11/19 01:46:19;;;;;;;0.38;0.38;;;;;;;5.15;100.00;100377.19;5039036;28;20147;-75
2023/11/19 01:48:46;;;;;;;0.20;0.20;;;;;;;4.62;100.00;100267.72;5036404;28;20045;-73
2023/11/19 01:51:16;;;;;;;1.35;1.35;;;;;;;4.52;100.00;100248.44;5029655;28;20377;-73
2023/11/19 01:53:43;;;;;;;0.28;0.28;;;;;;;5.36;100.00;100376.75;5035859;28;20029;-75
2023/11/19 01:56:10;;;;;;;0.30;0.30;;;;;;;5.36;100.00;100371.56;5027658;28;20136;-75
2023/11/19 01:58:36;;;;;;;0.32;0.32;;;;;;;4.80;100.00;100278.50;5035904;28;20037;-73
2023/11/19 02:01:05;;;;;;;0.30;0.30;;;;;;;5.18;100.00;100376.38;5043425;28;20044;-74
2023/11/19 02:03:32;;;;;;;1.75;1.65;;;;;;;4.56;100.00;100285.75;5038751;28;20529;-75
2023/11/19 02:06:02;;;;;;;0.60;0.60;;;;;;;4.95;100.00;100362.88;5026930;28;20108;-75
2023/11/19 02:08:29;;;;;;;0.20;0.20;;;;;;;4.57;100.00;100284.94;5043846;28;20033;-73
2023/11/19 02:10:57;;;;;;;0.30;0.30;;;;;;;5.20;100.00;100391.16;5040173;28;20477;-73
2023/11/19 02:13:24;;;;;;;0.30;0.30;;;;;;;4.54;100.00;100293.53;5042101;28;20025;-74
2023/11/19 02:15:50;;;;;;;0.30;0.30;;;;;;;4.82;100.00;100344.41;5029769;28;20075;-74
2023/11/19 02:22:09;;;;;;;0.30;0.30;;;;;;;5.08;100.00;100402.19;5024946;28;20083;-75
2023/11/19 02:25:16;;;;;;;0.30;0.30;;;;;;;4.99;100.00;100399.38;5055283;28;20043;-76
2023/11/19 02:28:13;;;;;;;0.22;0.22;;;;;;;4.97;100.00;100398.44;5017009;28;20041;-74
2023/11/19 02:30:38;;;;;;;0.20;0.20;;;;;;;4.89;100.00;100371.38;5014816;28;20034;-75
2023/11/19 02:33:07;;;;;;;0.30;0.30;;;;;;;4.59;100.00;100304.03;5035833;28;20491;-75
2023/11/19 02:35:33;;;;;;;0.30;0.30;;;;;;;4.88;100.00;100369.66;5033258;28;20033;-73
2023/11/19 02:38:08;;;;;;;0.30;0.30;;;;;;;4.80;100.00;100364.28;5053629;28;20037;-76
2023/11/19 02:41:26;;;;;;;0.30;0.30;;;;;;;5.01;100.00;100391.59;5034486;28;20377;-76
2023/11/19 02:43:53;;;;;;;0.28;0.28;;;;;;;4.55;100.00;100287.47;5039788;28;20052;-76
2023/11/19 02:46:19;;;;;;;0.30;0.30;;;;;;;3.91;100.00;100244.44;5019124;28;20045;-76
2023/11/19 02:48:45;;;;;;;0.30;0.30;;;;;;;4.79;100.00;100383.31;5035308;28;20436;-75
2023/11/19 02:51:12;;;;;;;0.35;0.35;;;;;;;4.97;100.00;100377.66;5036573;28;20024;-75
2023/11/19 02:53:37;;;;;;;0.57;0.57;;;;;;;5.11;100.00;100396.16;5051743;28;20024;-75
2023/11/19 02:59:08;;;;;;;0.30;0.30;;;;;;;5.16;100.00;100402.34;5039142;28;20117;-75
2023/11/19 03:01:43;;;;;;;0.88;0.88;;;;;;;5.13;100.00;100403.97;5052480;28;20431;-74
2023/11/19 03:04:11;;;;;;;0.45;0.40;;;;;;;4.84;100.00;100376.47;5026802;28;20048;-74
2023/11/19 03:06:37;;;;;;;0.30;0.30;;;;;;;4.82;100.00;100382.50;5009075;28;20393;-75
2023/11/19 03:09:10;;;;;;;0.30;0.30;;;;;;;4.32;100.00;100293.88;5046675;28;20021;-75
2023/11/19 03:11:35;;;;;;;0.30;0.30;;;;;;;4.70;100.00;100408.22;5053418;28;20036;-76
2023/11/19 03:14:18;;;;;;;0.32;0.32;;;;;;;5.00;100.00;100429.72;5038974;28;20037;-76
2023/11/19 03:17:16;;;;;;;0.40;0.40;;;;;;;5.17;100.00;100431.81;5035448;28;20044;-75
2023/11/19 03:20:20;;;;;;;0.40;0.40;;;;;;;5.16;100.00;100427.47;5049355;28;20043;-76
2023/11/19 03:22:46;;;;;;;0.40;0.40;;;;;;;5.10;100.00;100401.31;5041011;28;20099;-75
2023/11/19 03:25:12;;;;;;;0.20;0.20;;;;;;;5.18;100.00;100428.38;5041961;28;20045;-74
2023/11/19 03:27:41;;;;;;;0.30;0.30;;;;;;;5.18;100.00;100434.47;5030076;28;21484;-74
2023/11/19 03:30:22;;;;;;;0.30;0.30;;;;;;;4.38;100.00;100323.47;5023947;28;20067;-73
2023/11/19 03:32:48;;;;;;;6.18;5.88;;;;;;;4.94;100.00;100431.28;5044835;28;20045;-75
2023/11/19 03:35:13;;;;;;;0.70;0.70;;;;;;;4.70;100.00;100398.69;5037208;28;20040;-75
2023/11/19 03:37:39;;;;;;;0.25;0.25;;;;;;;3.97;100.00;100248.06;5047398;28;20051;-75
2023/11/19 03:40:05;;;;;;;0.43;0.43;;;;;;;3.94;100.00;100268.75;5043567;28;20363;-75
2023/11/19 03:42:31;;;;;;;1.35;1.30;;;;;;;4.11;100.00;100351.38;5026541;28;20064;-75
2023/11/19 03:44:58;;;;;;;0.40;0.40;;;;;;;4.25;100.00;100349.97;5025432;28;20078;-74
2023/11/19 03:51:00;;;;;;;0.32;0.32;;;;;;;4.67;100.00;100460.13;5047781;28;20040;-74
2023/11/19 03:53:25;;;;;;;0.30;0.30;;;;;;;4.73;100.00;100470.66;5011649;28;20041;-74
2023/11/19 03:55:52;;;;;;;0.68;0.68;;;;;;;4.22;100.00;100373.28;5022116;28;20053;-74
2023/11/19 04:02:10;;;;;;;0.30;0.30;;;;;;;4.76;100.00;100487.22;5049544;28;20501;-74
2023/11/19 04:04:59;;;;;;;0.25;0.25;;;;;;;4.70;100.00;100496.56;5050970;28;20041;-75
2023/11/19 04:07:25;;;;;;;9.88;0.70;;;;;;;4.60;100.00;100485.94;5038491;28;20497;-74
2023/11/19 04:09:51;;;;;;;0.20;0.20;;;;;;;4.54;100.00;100493.59;5046673;28;20040;-74
2023/11/19 04:12:16;;;;;;;0.32;0.32;;;;;;;4.48;100.00;100498.63;5045461;28;20461;-76
2023/11/19 04:18:04;;;;;;;0.30;0.30;;;;;;;4.42;100.00;100525.34;5037541;28;20396;-75
2023/11/19 04:20:29;;;;;;;0.30;0.30;;;;;;;4.24;100.00;100524.84;5035676;28;20021;-74
2023/11/19 04:26:24;;;;;;;0.20;0.20;;;;;;;4.42;100.00;100444.81;5044472;28;20098;-74
2023/11/19 04:28:50;;;;;;;;;;;;;;;4.65;100.00;100499.06;5029915;28;20045;-73
2023/11/19 04:31:16;;;;;;;0.28;0.28;;;;;;;4.60;100.00;100508.47;5030887;28;19916;-74
2023/11/19 04:33:43;;;;;;;0.30;0.30;;;;;;;4.06;100.00;100415.28;5047009;28;20095;-75
2023/11/19 04:39:30;;;;;;;0.30;0.30;;;;;;;4.42;100.00;100504.56;5053689;28;20062;-73
2023/11/19 04:41:55;;;;;;;0.22;0.22;;;;;;;4.32;100.00;100480.88;5036102;28;20094;-73
2023/11/19 04:44:22;;;;;;;0.30;0.30;;;;;;;4.50;100.00;100496.09;5053492;28;20428;-75
2023/11/19 04:46:47;;;;;;;0.30;0.30;;;;;;;3.84;100.00;100386.16;5051723;28;20096;-75
2023/11/19 04:52:38;;;;;;;0.75;0.60;;;;;;;4.50;100.00;100462.31;5053611;28;20475;-75
2023/11/19 04:55:05;;;;;;;0.40;0.40;;;;;;;4.52;100.00;100460.59;5053018;28;20048;-74
2023/11/19 04:57:31;;;;;;;0.40;0.40;;;;;;;4.58;100.00;100481.56;5053202;28;20063;-74
2023/11/19 04:59:56;;;;;;;0.20;0.20;;;;;;;4.58;100.00;100466.84;5053696;28;20033;-74
2023/11/19 05:05:51;;;;;;;0.30;0.30;;;;;;;3.76;100.00;100310.69;5053931;28;20094;-74
2023/11/19 05:08:16;;;;;;;0.43;0.43;;;;;;;4.66;100.00;100443.66;5052830;28;20068;-73
2023/11/19 05:10:42;;;;;;;0.30;0.30;;;;;;;4.27;100.00;100374.28;5040491;28;20502;-75
2023/11/19 05:13:07;;;;;;;0.30;0.30;;;;;;;4.37;100.00;100412.63;5015259;28;20044;-75
2023/11/19 05:18:55;;;;;;;0.65;0.50;;;;;;;4.30;100.00;100387.34;5033071;28;20044;-75
2023/11/19 05:21:21;;;;;;;0.40;0.40;;;;;;;4.75;100.00;100472.47;5032897;28;20043;-75
2023/11/19 05:23:46;;;;;;;0.20;0.20;;;;;;;4.63;100.00;100524.13;5034123;28;20036;-75
2023/11/19 05:26:23;;;;;;;0.20;0.20;;;;;;;4.83;100.00;100524.66;5034912;28;20116;-75
2023/11/19 05:28:49;;;;;;;1.30;1.25;;;;;;;4.86;100.00;100527.31;5035300;28;20061;-75
2023/11/19 05:31:16;;;;;;;9.77;3.80;;;;;;;4.90;100.00;100529.16;5033725;28;20041;-73
2023/11/19 05:33:48;;;;;;;0.40;0.40;;;;;;;4.85;100.00;100526.44;5032457;28;20044;-73
2023/11/19 05:39:35;;;;;;;1.63;1.40;;;;;;;4.70;100.00;100558.97;5031939;28;20064;-74
2023/11/19 05:45:22;;;;;;;1.05;1.05;;;;;;;4.08;100.00;100435.25;5029783;28;20057;-75
2023/11/19 05:48:16;;;;;;;0.30;0.30;;;;;;;4.74;100.00;100559.06;5041161;28;20024;-75
2023/11/19 05:50:42;;;;;;;;;;;;;;;4.69;100.00;100555.47;5038017;28;20422;-75
2023/11/19 05:53:10;;;;;;;0.35;0.35;;;;;;;4.60;100.00;100518.84;5042552;28;19952;-74
2023/11/19 05:55:44;;;;;;;0.88;0.88;;;;;;;4.21;100.00;100535.13;5037802;28;20038;-75
2023/11/19 05:58:12;;;;;;;0.50;0.50;;;;;;;3.67;100.00;100449.69;5011974;28;20037;-75
2023/11/19 06:00:38;;;;;;;0.38;0.38;;;;;;;4.58;100.00;100554.31;5041314;28;20053;-74
2023/11/19 06:03:28;;;;;;;0.30;0.30;;;;;;;4.71;100.00;100550.34;5036858;28;20022;-75
2023/11/19 06:05:55;;;;;;;0.30;0.30;;;;;;;4.47;100.00;100511.56;5026621;28;20105;-74
2023/11/19 06:08:21;;;;;;;1.00;0.82;;;;;;;3.95;100.00;100435.75;5030678;28;20048;-75
2023/11/19 06:10:47;;;;;;;0.40;0.40;;;;;;;4.44;100.00;100544.44;5033772;28;20037;-75
2023/11/19 06:13:30;;;;;;;0.30;0.30;;;;;;;4.50;100.00;100541.13;5018855;28;20045;-73
2023/11/19 06:15:57;;;;;;;;;;;;;;;4.55;100.00;100541.25;5014555;28;20042;-73
2023/11/19 06:18:23;;;;;;;0.40;0.40;;;;;;;3.89;100.00;100425.22;5041982;28;19975;-73
2023/11/19 06:20:49;;;;;;;0.38;0.38;;;;;;;4.50;100.00;100540.25;5027304;28;20021;-74
2023/11/19 06:23:16;;;;;;;1.13;1.13;;;;;;;3.59;100.00;100441.69;5028369;28;20381;-75
2023/11/19 06:25:42;;;;;;;1.45;1.35;;;;;;;3.54;100.00;100428.59;5027479;28;20049;-75
2023/11/19 06:28:07;;;;;;;8.70;5.10;;;;;;;3.96;100.00;100484.25;5019101;28;20037;-75
2023/11/19 06:34:45;;;;;;;0.30;0.30;;;;;;;3.88;100.00;100541.13;5023526;28;20133;-74
2023/11/19 06:37:11;;;;;;;0.30;0.30;;;;;;;2.99;100.00;100413.97;5006661;28;20053;-73
2023/11/19 06:39:37;;;;;;;0.30;0.30;;;;;;;3.14;100.00;100434.31;5009535;28;20041;-74
2023/11/19 06:42:02;;;;;;;0.60;0.60;;;;;;;3.76;100.00;100487.16;5012601;28;20030;-75
2023/11/19 06:48:21;;;;;;;0.85;0.55;;;;;;;4.06;100.00;100526.94;5020227;28;20069;-74
2023/11/19 06:58:02;;;;;;;1.40;1.30;;;;;;;3.83;100.00;100537.53;5029273;28;20035;-74
2023/11/19 07:03:49;;;;;;;0.35;0.35;;;;;;;3.33;100.00;100420.19;5007502;28;20095;-73
2023/11/19 07:06:16;;;;;;;0.40;0.40;;;;;;;3.39;100.00;100443.69;5019234;28;20442;-74
2023/11/19 07:08:44;;;;;;;0.22;0.22;;;;;;;3.49;100.00;100424.09;5013912;28;20025;-75
2023/11/19 07:11:11;;;;;;;0.50;0.50;;;;;;;3.44;100.00;100428.25;4995618;28;20080;-73
2023/11/19 07:13:37;;;;;;;0.30;0.30;;;;;;;3.60;100.00;100425.28;5017149;28;20045;-73
2023/11/19 07:16:03;;;;;;;0.30;0.30;;;;;;;4.36;100.00;100545.97;5023157;28;20643;-75
2023/11/19 07:22:25;;;;;;;0.35;0.35;;;;;;;4.46;100.00;100557.47;5031679;28;20469;-74
2023/11/19 07:24:53;;;;;;;0.40;0.40;;;;;;;4.41;100.00;100549.56;5025530;28;20037;-74
2023/11/19 07:27:19;;;;;;;0.30;0.30;;;;;;;4.49;100.00;100578.31;5029800;28;20056;-74
2023/11/19 07:29:44;;;;;;;0.35;0.35;;;;;;;4.37;100.00;100524.31;5014089;28;20033;-74
2023/11/19 07:32:10;;;;;;;0.30;0.30;;;;;;;4.65;100.00;100562.31;5011070;28;20041;-74
2023/11/19 07:34:36;;;;;;;0.40;0.40;;;;;;;4.93;100.00;100570.81;5014674;28;20056;-74
2023/11/19 07:37:52;;;;;;;0.90;0.82;;;;;;;4.98;100.00;100564.00;5040354;28;20069;-75
2023/11/19 07:40:18;;;;;;;0.88;0.88;;;;;;;4.42;100.00;100431.81;5032631;28;20486;-76
2023/11/19 07:42:44;;;;;;;3.65;3.35;;;;;;;5.29;100.00;100570.88;5030993;28;20022;-76
2023/11/19 07:45:10;;;;;;;1.88;1.77;;;;;;;5.49;100.00;100578.25;5029335;28;20025;-79
2023/11/19 07:47:36;;;;;;;0.52;0.52;;;;;;;5.50;100.00;100575.69;5027180;28;20393;-75
2023/11/19 07:50:04;;;;;;;0.30;0.30;;;;;;;4.71;100.00;100456.78;5020624;28;20108;-75
2023/11/19 07:52:29;;;;;;;0.30;0.30;;;;;;;5.50;100.00;100564.38;5020477;28;20057;-75
2023/11/19 07:55:01;;;;;;;0.73;0.73;;;;;;;5.60;100.00;100573.31;5027583;28;20365;-76
2023/11/19 07:57:30;;;;;;;0.60;0.60;;;;;;;5.78;100.00;100573.69;5016679;28;20090;-76
2023/11/19 07:59:57;;;;;;;1.63;1.60;;;;;;;5.55;100.00;100554.97;5009743;28;20125;-76
2023/11/19 08:02:23;;;;;;;1.25;1.20;;;;;;;5.83;100.00;100573.78;5046140;28;20044;-75
2023/11/19 08:04:51;;;;;;;5.45;5.15;;;;;;;5.24;100.00;100472.72;5043053;28;20048;-75
2023/11/19 08:07:19;;;;;;;0.32;0.32;;;;;;;5.87;100.00;100583.44;5029992;28;20045;-77
2023/11/19 08:09:45;;;;;;;0.40;0.40;;;;;;;5.83;100.00;100560.75;5044055;28;20060;-77
2023/11/19 08:12:10;;;;;;;0.57;0.57;;;;;;;5.34;100.00;100460.78;5049602;28;20372;-75
2023/11/19 08:14:36;;;;;;;3.42;3.13;;;;;;;5.99;100.00;100559.41;5050737;28;20021;-75
2023/11/19 08:17:05;;;;;;;0.28;0.28;;;;;;;5.81;100.00;100505.19;5049727;28;20040;-74
2023/11/19 08:19:44;;;;;;;0.85;0.85;;;;;;;6.27;100.00;100592.13;5056989;28;20033;-74
2023/11/19 08:22:09;;;;;;;0.30;0.30;;;;;;;5.74;100.00;100483.38;5032145;28;20186;-74
2023/11/19 08:24:35;;;;;;;45.03;13.73;;;;;;;6.38;100.00;100594.94;5042821;28;20559;-75
2023/11/19 08:27:02;;;;;;;0.20;0.20;;;;;;;6.09;100.00;100597.84;5043761;28;20029;-75
2023/11/19 08:33:31;;;;;;;0.30;0.30;;;;;;;6.44;100.00;100582.94;5051998;28;20040;-75
2023/11/19 08:35:58;;;;;;;0.40;0.40;;;;;;;6.30;100.00;100569.63;5052529;28;20508;-77
2023/11/19 08:38:25;;;;;;;0.40;0.40;;;;;;;5.90;100.00;100497.59;5032099;28;20473;-75
2023/11/19 08:40:50;;;;;;;0.30;0.30;;;;;;;6.11;100.00;100508.47;5048706;28;20405;-74
2023/11/19 08:43:17;;;;;;;3.55;2.70;;;;;;;5.89;100.00;100486.25;5049167;28;20048;-73
2023/11/19 08:45:42;;;;;;;0.30;0.30;;;;;;;5.94;100.00;100470.75;5047191;28;20094;-74
2023/11/19 08:48:08;;;;;;;0.40;0.40;;;;;;;6.88;100.00;100579.38;5033388;28;20032;-73
2023/11/19 08:50:37;;;;;;;1.27;1.00;;;;;;;6.45;100.00;100459.56;5055015;28;20051;-76
2023/11/19 08:53:06;;;;;;;2.28;2.17;;;;;;;6.45;100.00;100461.28;5048817;28;20120;-78
2023/11/19 08:55:32;;;;;;;0.30;0.30;;;;;;;7.14;100.00;100554.63;5028683;28;20048;-78
2023/11/19 08:57:58;;;;;;;0.50;0.50;;;;;;;7.13;100.00;100557.19;5042254;28;20048;-77
2023/11/19 09:00:53;;;;;;;0.30;0.30;;;;;;;7.25;100.00;100578.25;5047361;28;20021;-74
2023/11/19 09:03:21;;;;;;;0.20;0.20;;;;;;;7.00;100.00;100560.44;5049518;28;20025;-76
2023/11/19 09:05:53;;;;;;;0.40;0.40;;;;;;;6.50;100.00;100477.88;5047839;28;20016;-74
2023/11/19 09:08:18;;;;;;;0.20;0.20;;;;;;;7.02;100.00;100548.31;5045622;28;20032;-75
2023/11/19 09:10:44;;;;;;;0.30;0.30;;;;;;;6.50;100.00;100459.63;5036318;28;20048;-78
2023/11/19 09:13:09;;;;;;;0.52;0.52;;;;;;;6.53;100.00;100452.75;5052421;28;20052;-77
2023/11/19 09:19:00;;;;;;;0.30;0.30;;;;;;;6.92;100.00;100442.94;5053253;28;20251;-82
2023/11/19 09:21:26;;;;;;;0.20;0.20;;;;;;;5.29;100.00;100208.34;5051432;28;20068;-87
2023/11/19 09:23:53;;;;;;;0.30;0.30;;;;;;;7.74;100.00;100555.50;5035950;28;20037;-80
2023/11/19 09:26:20;;;;;;;0.30;0.30;;;;;;;6.96;100.00;100426.47;5052797;28;20037;-87
2023/11/19 09:32:42;;;;;;;0.40;0.30;;;;;;;7.39;100.00;100544.53;5043981;28;20072;-86
2023/11/19 09:39:09;;;;;;;0.77;0.77;;;;;;;7.50;100.00;100516.88;5054120;28;20098;-86
2023/11/19 09:44:59;;;;;;;0.30;0.30;;;;;;;7.14;100.00;100442.41;5067770;28;20132;-81
2023/11/19 09:50:47;;;;;;;0.30;0.30;;;;;;;7.12;100.00;100404.09;5052831;28;20083;-86
2023/11/19 09:53:14;;;;;;;0.95;0.85;;;;;;;7.84;100.00;100506.84;5033901;28;20086;-84
2023/11/19 09:55:40;;;;;;;0.30;0.30;;;;;;;7.79;100.00;100503.31;5052618;28;20153;-82
2023/11/19 09:58:07;;;;;;;0.68;0.60;;;;;;;7.21;100.00;100378.13;5052211;28;20158;-86
2023/11/19 10:00:33;;;;;;;2.10;2.00;;;;;;;7.77;100.00;100471.06;5042145;28;20120;-87
2023/11/19 10:02:59;;;;;;;0.30;0.30;;;;;;;7.19;100.00;100361.59;5052033;28;20082;-82
2023/11/19 10:05:26;;;;;;;0.20;0.20;;;;;;;7.90;100.00;100506.94;5030061;28;20091;-80
2023/11/19 10:07:55;;;;;;;0.30;0.30;;;;;;;7.59;100.00;100417.75;5046154;28;20041;-81
2023/11/19 10:10:21;;;;;;;0.22;0.22;;;;;;;7.31;100.00;100393.06;5040651;28;20051;-81
2023/11/19 10:12:49;;;;;;;0.38;0.38;;;;;;;7.62;100.00;100388.19;5046629;28;23364;-80
2023/11/19 10:15:21;;;;;;;0.30;0.30;;;;;;;8.27;100.00;100491.69;5041079;28;20017;-76
2023/11/19 10:17:47;;;;;;;0.20;0.20;;;;;;;8.34;100.00;100467.38;5043356;28;20146;-77
2023/11/19 10:20:13;;;;;;;0.30;0.30;;;;;;;8.64;100.00;100487.72;5064694;28;20032;-82
2023/11/19 10:22:39;;;;;;;0.30;0.30;;;;;;;8.46;100.00;100477.09;5046566;28;20037;-78
2023/11/19 10:25:28;;;;;;;0.25;0.25;;;;;;;8.48;100.00;100454.47;5060219;28;20037;-80
2023/11/19 10:27:55;;;;;;;0.95;0.93;;;;;;;8.53;100.00;100486.75;5035621;28;20080;-85
2023/11/19 10:30:23;;;;;;;0.40;0.32;;;;;;;8.69;100.00;100440.69;5037492;28;20038;-85
2023/11/19 10:33:08;;;;;;;0.30;0.30;;;;;;;9.20;100.00;100490.75;5053098;28;20029;-84
2023/11/19 10:35:53;;;;;;;0.82;0.70;;;;;;;9.21;100.00;100467.22;5050779;28;20053;-86
2023/11/19 10:38:19;;;;;;;0.30;0.30;;;;;;;8.54;100.00;100377.78;5064471;28;20384;-86
2023/11/19 10:40:45;;;;;;;0.20;0.20;;;;;;;8.75;100.00;100362.22;5063069;28;20032;-78
2023/11/19 10:43:12;;;;;;;0.20;0.20;;;;;;;9.43;100.00;100436.78;5054119;28;20105;-85
2023/11/19 10:45:38;;;;;;;12.63;11.77;;;;;;;9.23;100.00;100456.78;5037247;28;20127;-84
2023/11/19 10:48:08;;;;;;;1.08;1.08;;;;;;;8.83;100.00;100342.25;5056498;28;20150;-85
2023/11/19 10:50:35;;;;;;;0.38;0.38;;;;;;;8.86;100.00;100401.56;5055921;28;20472;-85
2023/11/19 10:53:04;;;;;;;1.48;1.27;;;;;;;9.35;99.97;100441.13;5055219;28;20060;-82
2023/11/19 10:55:34;;;;;;;0.20;0.20;;;;;;;9.64;100.00;100461.34;5055403;28;20044;-83
2023/11/19 11:04:51;;;;;;;0.30;0.30;;;;;;;9.07;94.94;100358.94;5055218;28;20086;-80
2023/11/19 11:07:21;;;;;;;0.30;0.30;;;;;;;9.76;98.36;100452.66;5054258;28;20520;-80
2023/11/19 11:09:48;;;;;;;1.05;1.05;;;;;;;9.53;100.00;100419.41;5054503;28;20122;-81
2023/11/19 11:12:17;;;;;;;0.20;0.20;;;;;;;9.00;99.25;100324.00;5053055;28;20129;-81
2023/11/19 11:18:08;;;;;;;0.20;0.20;;;;;;;9.00;97.72;100328.38;5044721;28;20040;-87
2023/11/19 11:21:09;;;;;;;1.17;1.17;;;;;;;9.91;100.00;100437.88;5037145;28;20079;-90
2023/11/19 11:24:13;;;;;;;1.08;0.43;;;;;;;9.45;94.26;100442.03;5035807;28;20041;-84
2023/11/19 11:30:22;;;;;;;1.48;1.42;;;;;;;9.44;100.00;100435.06;5047101;28;20069;-90
2023/11/19 11:32:54;;;;;;;0.28;0.28;;;;;;;9.55;100.00;100449.06;5040853;28;20025;-88
2023/11/19 11:35:26;;;;;;;0.68;0.68;;;;;;;9.70;100.00;100432.56;5037523;28;20085;-90
2023/11/19 11:38:13;;;;;;;5.75;5.45;;;;;;;9.40;100.00;100431.53;5033397;28;20095;-89
2023/11/19 11:40:40;;;;;;;0.20;0.20;;;;;;;9.07;100.00;100304.84;5036668;28;20044;-89
2023/11/19 11:43:44;;;;;;;1.50;1.40;;;;;;;9.56;100.00;100419.41;5045757;28;20125;-88
2023/11/19 11:46:32;;;;;;;0.40;0.40;;;;;;;9.51;100.00;100423.75;5057716;28;20120;-87
2023/11/19 11:49:00;;;;;;;0.90;0.65;;;;;;;9.53;100.00;100398.44;5057974;28;20055;-88
2023/11/19 11:54:49;;;;;;;0.30;0.30;;;;;;;9.60;99.26;100384.50;5062875;28;20086;-88
2023/11/19 12:00:40;;;;;;;0.25;0.25;;;;;;;9.22;100.00;100338.06;5059101;28;20035;-88
2023/11/19 12:03:08;;;;;;;0.95;0.73;;;;;;;9.33;100.00;100324.16;5054352;28;20487;-89
2023/11/19 12:05:43;;;;;;;1.20;1.10;;;;;;;9.64;100.00;100383.63;5020651;28;20020;-87
2023/11/19 12:08:11;;;;;;;0.45;0.45;;;;;;;9.35;100.00;100361.69;5059470;28;20047;-81
2023/11/19 12:10:54;;;;;;;0.35;0.35;;;;;;;9.57;100.00;100391.44;5062067;28;20033;-82
2023/11/19 12:13:22;;;;;;;0.85;0.82;;;;;;;9.83;100.00;100395.06;5053813;28;20045;-76
2023/11/19 12:15:56;;;;;;;0.77;0.77;;;;;;;9.78;100.00;100390.66;5046677;28;20106;-75
2023/11/19 12:18:30;;;;;;;0.90;0.75;;;;;;;9.45;100.00;100366.09;5073759;28;20028;-81
2023/11/19 12:21:00;;;;;;;0.30;0.30;;;;;;;9.82;100.00;100390.66;5065548;28;20048;-76
2023/11/19 12:23:26;;;;;;;1.60;1.50;;;;;;;9.62;100.00;100312.03;5053778;28;20036;-81
2023/11/19 12:25:52;;;;;;;0.30;0.30;;;;;;;10.29;100.00;100389.03;5073455;28;20047;-77
2023/11/19 12:31:44;;;;;;;3.47;2.28;;;;;;;10.38;98.89;100403.91;5073359;28;20064;-76
2023/11/19 12:37:32;;;;;;;0.32;0.32;;;;;;;10.51;95.81;100396.06;5073413;28;20546;-75
2023/11/19 12:39:58;;;;;;;0.22;0.22;;;;;;;10.57;91.51;100384.66;5054196;28;20047;-77
2023/11/19 12:42:38;;;;;;;0.90;0.50;;;;;;;9.88;93.59;100317.31;5055709;28;20130;-76
2023/11/19 12:45:39;;;;;;;3.00;1.35;;;;;;;10.10;91.27;100388.09;5055673;28;20519;-76
2023/11/19 12:48:05;;;;;;;0.35;0.35;;;;;;;9.99;91.52;100334.78;5015116;28;20504;-74
2023/11/19 12:51:01;;;;;;;0.60;0.60;;;;;;;10.20;87.13;100407.34;5046182;28;20071;-75
2023/11/19 12:53:27;;;;;;;1.30;1.00;;;;;;;9.93;93.55;100393.31;5053283;28;20033;-74
2023/11/19 12:55:53;;;;;;;1.50;0.60;;;;;;;9.48;93.44;100332.94;5053025;28;20132;-75
2023/11/19 12:58:35;;;;;;;1.75;1.00;;;;;;;9.39;92.07;100313.69;5051444;28;20068;-74
2023/11/19 13:01:05;;;;;;;1.77;1.42;;;;;;;9.76;96.48;100413.34;5051176;28;20135;-74
2023/11/19 13:03:36;;;;;;;1.05;0.85;;;;;;;9.73;100.00;100409.84;5050616;28;20040;-74
2023/11/19 13:07:05;;;;;;;0.30;0.30;;;;;;;9.77;100.00;100405.50;5052030;28;20419;-75
2023/11/19 13:09:37;;;;;;;1.00;1.00;;;;;;;9.12;100.00;100306.63;5035357;28;20037;-74
2023/11/19 13:12:16;;;;;;;0.77;0.63;;;;;;;9.45;100.00;100382.69;5036455;28;20029;-74
2023/11/19 13:14:53;;;;;;;1.75;1.65;;;;;;;8.97;100.00;100281.28;5066695;28;20048;-75
2023/11/19 13:20:41;;;;;;;1.17;0.95;;;;;;;9.52;100.00;100396.69;5069926;28;20105;-77
2023/11/19 13:23:07;;;;;;;0.68;0.68;;;;;;;8.90;100.00;100331.78;5056420;28;20480;-74
2023/11/19 13:25:33;;;;;;;0.20;0.20;;;;;;;9.14;100.00;100346.78;5054525;28;20048;-75
2023/11/19 13:27:59;;;;;;;0.60;0.60;;;;;;;8.94;100.00;100287.34;5049771;28;20462;-74
2023/11/19 13:30:25;;;;;;;0.22;0.22;;;;;;;9.27;100.00;100359.03;5053261;28;20055;-75
2023/11/19 13:32:52;;;;;;;0.60;0.60;;;;;;;9.38;100.00;100390.50;5056552;28;20036;-75
2023/11/19 13:35:27;;;;;;;2.50;1.90;;;;;;;9.27;100.00;100356.41;5057524;28;20379;-75
2023/11/19 13:38:13;;;;;;;2.22;2.03;;;;;;;8.50;100.00;100276.63;5070306;28;20075;-76
2023/11/19 13:40:39;;;;;;;0.70;0.70;;;;;;;8.60;100.00;100281.94;5014506;28;20049;-77
2023/11/19 13:43:04;;;;;;;0.28;0.28;;;;;;;9.07;100.00;100378.13;5018679;28;20052;-76
2023/11/19 13:45:31;;;;;;;0.20;0.20;;;;;;;8.83;100.00;100338.75;5046443;28;20465;-75
2023/11/19 13:47:56;;;;;;;0.20;0.20;;;;;;;9.00;100.00;100339.72;5049645;28;20040;-77
2023/11/19 13:50:22;;;;;;;0.40;0.40;;;;;;;9.23;100.00;100360.78;5048793;28;20033;-78
2023/11/19 13:52:48;;;;;;;1.85;0.77;;;;;;;9.06;100.00;100344.09;5041012;28;20036;-77
2023/11/19 13:55:14;;;;;;;1.13;1.05;;;;;;;8.27;100.00;100264.28;5042985;28;20030;-76